Time;durP1;ratioP1;P1;durP2;ratioP2;P2;SDS_P1;SDS_P2;PMS_P1;PMS_P2;Temp;Humidity;BMP_temperature;BMP_pressure;BME280_temperature;BME280_humidity;BME280_pressure;Samples;Min_cycle;Max_cycle;Signal;HPM_P1;HPM_P2
2022/04/13 00:00:16;;;;;;;59.50;26.20;;;;;;;;;;6184530;28;20129;-61
2022/04/13 00:03:35;;;;;;;52.38;25.25;;;;;;;;;;6183818;28;20054;-61
2022/04/13 00:06:38;;;;;;;56.03;25.25;;;;;;;;;;6183698;28;20117;-61
2022/04/13 00:09:39;;;;;;;55.15;25.45;;;;;;;;;;6178333;28;20168;-61
2022/04/13 00:12:40;;;;;;;57.80;26.63;;;;;;;;;;6180853;28;20133;-63
2022/04/13 00:15:41;;;;;;;62.60;26.83;;;;;;;;;;6180658;28;20031;-61
2022/04/13 00:18:42;;;;;;;58.47;26.80;;;;;;;;;;6185577;28;20051;-61
2022/04/13 00:21:42;;;;;;;63.22;27.52;;;;;;;;;;6180412;28;20046;-61
2022/04/13 00:24:43;;;;;;;58.80;27.10;;;;;;;;;;6186317;28;20143;-61
2022/04/13 00:27:43;;;;;;;64.72;27.92;;;;;;;;;;6187545;28;20066;-61
2022/04/13 00:30:44;;;;;;;61.15;27.10;;;;;;;;;;6179213;28;20101;-62
2022/04/13 00:33:45;;;;;;;60.75;27.85;;;;;;;;;;6178077;28;20078;-63
2022/04/13 00:36:45;;;;;;;57.78;26.50;;;;;;;;;;6181657;28;20046;-62
2022/04/13 00:39:46;;;;;;;55.75;24.52;;;;;;;;;;6181745;28;20059;-61
2022/04/13 00:42:47;;;;;;;64.05;27.27;;;;;;;;;;6176632;28;20177;-64
2022/04/13 00:45:48;;;;;;;60.35;28.73;;;;;;;;;;6188480;28;20705;-62
2022/04/13 00:48:48;;;;;;;60.03;27.25;;;;;;;;;;6186406;28;20058;-61
2022/04/13 00:51:49;;;;;;;59.38;27.55;;;;;;;;;;6181592;28;20046;-61
2022/04/13 00:54:52;;;;;;;62.75;27.40;;;;;;;;;;6186954;28;20406;-62
2022/04/13 00:57:54;;;;;;;74.97;31.02;;;;;;;;;;6188257;28;20058;-61
2022/04/13 01:00:55;;;;;;;;;;;;;;;;;;6185669;28;20066;-61
2022/04/13 01:03:57;;;;;;;68.22;28.10;;;;;;;;;;6181795;28;19933;-61
2022/04/13 01:06:58;;;;;;;77.40;29.20;;;;;;;;;;6178695;28;20047;-61
2022/04/13 01:10:05;;;;;;;66.83;28.30;;;;;;;;;;6184560;28;20050;-61
2022/04/13 01:13:05;;;;;;;63.10;27.33;;;;;;;;;;6180482;28;20524;-61
2022/04/13 01:16:07;;;;;;;60.80;25.05;;;;;;;;;;6181958;28;20150;-61
2022/04/13 01:19:08;;;;;;;61.55;25.25;;;;;;;;;;6186729;28;20124;-61
2022/04/13 01:22:15;;;;;;;59.00;24.95;;;;;;;;;;6178908;28;20074;-62
2022/04/13 01:25:16;;;;;;;67.60;27.08;;;;;;;;;;6184108;28;20043;-61
2022/04/13 01:28:17;;;;;;;68.90;26.65;;;;;;;;;;6173198;28;20051;-62
2022/04/13 01:31:18;;;;;;;54.42;25.55;;;;;;;;;;6176589;28;20063;-64
2022/04/13 01:34:18;;;;;;;64.28;27.70;;;;;;;;;;6169749;28;20669;-61
2022/04/13 01:37:19;;;;;;;63.45;28.23;;;;;;;;;;6188596;28;20050;-62
2022/04/13 01:40:25;;;;;;;64.43;27.92;;;;;;;;;;6178289;28;20054;-62
2022/04/13 01:43:25;;;;;;;68.25;28.65;;;;;;;;;;6181877;28;20057;-64
2022/04/13 01:46:33;;;;;;;70.05;29.95;;;;;;;;;;6186672;28;20057;-61
2022/04/13 01:49:34;;;;;;;65.65;29.35;;;;;;;;;;6186708;28;20904;-62
2022/04/13 01:52:35;;;;;;;71.25;29.98;;;;;;;;;;6183192;28;20517;-62
2022/04/13 01:55:36;;;;;;;67.68;30.08;;;;;;;;;;6179966;28;20058;-62
2022/04/13 01:58:37;;;;;;;62.60;26.38;;;;;;;;;;6175458;28;20505;-61
2022/04/13 02:01:44;;;;;;;59.97;26.55;;;;;;;;;;6175607;28;20654;-62
2022/04/13 02:04:45;;;;;;;62.28;29.08;;;;;;;;;;6178193;28;20070;-61
2022/04/13 02:07:46;;;;;;;67.78;30.02;;;;;;;;;;6180085;28;20065;-63
2022/04/13 02:10:47;;;;;;;62.58;29.98;;;;;;;;;;6178311;28;20043;-64
2022/04/13 02:13:47;;;;;;;73.05;32.47;;;;;;;;;;6176829;28;20738;-61
2022/04/13 02:16:48;;;;;;;79.72;36.10;;;;;;;;;;6179375;28;20047;-61
2022/04/13 02:19:48;;;;;;;77.63;31.23;;;;;;;;;;6183486;28;20060;-63
2022/04/13 02:22:49;;;;;;;73.60;33.55;;;;;;;;;;6173441;28;20054;-61
2022/04/13 02:25:49;;;;;;;72.95;31.65;;;;;;;;;;6183340;28;20466;-61
2022/04/13 02:28:50;;;;;;;75.57;32.47;;;;;;;;;;6179693;28;20057;-63
2022/04/13 02:31:51;;;;;;;70.45;30.20;;;;;;;;;;6182377;28;20137;-61
2022/04/13 02:34:51;;;;;;;69.72;30.70;;;;;;;;;;6185434;28;20045;-61
2022/04/13 02:37:52;;;;;;;69.93;31.80;;;;;;;;;;6186675;28;20145;-62
2022/04/13 02:40:52;;;;;;;69.05;31.63;;;;;;;;;;6176639;28;20069;-61
2022/04/13 02:43:53;;;;;;;68.43;30.90;;;;;;;;;;6189311;28;20137;-61
2022/04/13 02:46:53;;;;;;;68.07;28.50;;;;;;;;;;6191419;28;20109;-61
2022/04/13 02:49:55;;;;;;;59.70;28.02;;;;;;;;;;6189960;28;20050;-61
2022/04/13 02:52:56;;;;;;;63.50;29.90;;;;;;;;;;6179545;28;20054;-64
2022/04/13 02:55:58;;;;;;;64.25;29.88;;;;;;;;;;6189284;28;20054;-61
2022/04/13 02:58:58;;;;;;;72.07;32.97;;;;;;;;;;6192631;28;20078;-61
2022/04/13 03:01:59;;;;;;;78.28;33.80;;;;;;;;;;6176781;28;20073;-61
2022/04/13 03:04:59;;;;;;;102.13;38.63;;;;;;;;;;6188049;28;20066;-61
2022/04/13 03:08:00;;;;;;;91.60;38.35;;;;;;;;;;6183577;28;20166;-61
2022/04/13 03:11:01;;;;;;;96.65;37.85;;;;;;;;;;6180276;28;20054;-61
2022/04/13 03:14:01;;;;;;;150.00;43.92;;;;;;;;;;6180366;28;20978;-61
2022/04/13 03:17:02;;;;;;;158.60;47.13;;;;;;;;;;6187881;28;20062;-62
2022/04/13 03:20:03;;;;;;;125.95;43.28;;;;;;;;;;6181356;28;20047;-63
2022/04/13 03:23:04;;;;;;;174.82;49.20;;;;;;;;;;6182990;28;20065;-61
2022/04/13 03:26:04;;;;;;;146.25;44.40;;;;;;;;;;6191669;28;20129;-62
2022/04/13 03:29:05;;;;;;;138.60;44.38;;;;;;;;;;6185684;28;20062;-61
2022/04/13 03:32:06;;;;;;;191.40;51.83;;;;;;;;;;6183127;28;20061;-61
2022/04/13 03:35:10;;;;;;;301.70;72.30;;;;;;;;;;6194244;28;20093;-61
2022/04/13 03:38:11;;;;;;;233.20;59.45;;;;;;;;;;6188355;28;20055;-61
2022/04/13 03:41:11;;;;;;;188.10;54.70;;;;;;;;;;6179009;28;20117;-62
2022/04/13 03:44:12;;;;;;;159.43;47.53;;;;;;;;;;6189891;28;20129;-61
2022/04/13 03:47:12;;;;;;;137.07;43.75;;;;;;;;;;6185907;28;20050;-61
2022/04/13 03:50:13;;;;;;;116.57;41.70;;;;;;;;;;6188783;28;20150;-61
2022/04/13 03:53:14;;;;;;;155.43;48.95;;;;;;;;;;6181827;28;20035;-61
2022/04/13 03:56:14;;;;;;;151.40;48.13;;;;;;;;;;6179384;28;20070;-60
2022/04/13 03:59:15;;;;;;;112.95;40.22;;;;;;;;;;6190307;28;20054;-61
2022/04/13 04:02:16;;;;;;;105.30;38.67;;;;;;;;;;6179052;28;20046;-60
2022/04/13 04:05:17;;;;;;;95.00;34.80;;;;;;;;;;6178255;28;20536;-61
2022/04/13 04:08:18;;;;;;;97.75;36.55;;;;;;;;;;6177867;28;20517;-60
2022/04/13 04:11:19;;;;;;;119.03;39.83;;;;;;;;;;6184695;28;20054;-60
2022/04/13 04:14:20;;;;;;;111.88;39.60;;;;;;;;;;6185547;28;20125;-61
2022/04/13 04:17:20;;;;;;;122.32;46.88;;;;;;;;;;6186895;28;20065;-61
2022/04/13 04:20:21;;;;;;;120.68;42.75;;;;;;;;;;6188390;28;20050;-60
2022/04/13 04:23:22;;;;;;;111.63;43.42;;;;;;;;;;6183210;28;20066;-61
2022/04/13 04:26:22;;;;;;;113.43;43.15;;;;;;;;;;6190710;28;20129;-60
2022/04/13 04:29:24;;;;;;;116.25;46.00;;;;;;;;;;6195600;28;20112;-60
2022/04/13 04:32:24;;;;;;;111.70;41.53;;;;;;;;;;6188153;28;20050;-60
2022/04/13 04:35:25;;;;;;;112.65;41.10;;;;;;;;;;6182418;28;20038;-61
2022/04/13 04:38:32;;;;;;;119.65;44.05;;;;;;;;;;6192117;28;20097;-61
2022/04/13 04:41:33;;;;;;;122.20;45.17;;;;;;;;;;6188447;28;20478;-61
2022/04/13 04:44:33;;;;;;;122.47;45.78;;;;;;;;;;6185765;28;20089;-61
2022/04/13 04:47:34;;;;;;;123.60;46.70;;;;;;;;;;6185935;28;20050;-60
2022/04/13 04:50:35;;;;;;;137.20;48.58;;;;;;;;;;6175410;28;20105;-60
2022/04/13 04:53:37;;;;;;;131.93;49.05;;;;;;;;;;6190684;28;20508;-61
2022/04/13 04:56:38;;;;;;;124.18;46.38;;;;;;;;;;6185371;28;20046;-62
2022/04/13 04:59:39;;;;;;;131.00;46.28;;;;;;;;;;6187871;28;20049;-60
2022/04/13 05:02:40;;;;;;;120.88;41.28;;;;;;;;;;6185037;28;20560;-61
2022/04/13 05:05:41;;;;;;;108.85;44.15;;;;;;;;;;6181869;28;20082;-61
2022/04/13 05:08:41;;;;;;;109.75;45.90;;;;;;;;;;6185945;28;20158;-60
2022/04/13 05:11:42;;;;;;;105.70;41.97;;;;;;;;;;6188355;28;20054;-61
2022/04/13 05:14:43;;;;;;;91.18;37.35;;;;;;;;;;6186568;28;20105;-60
2022/04/13 05:17:44;;;;;;;89.65;34.70;;;;;;;;;;6182703;28;20523;-60
2022/04/13 05:20:44;;;;;;;96.43;35.17;;;;;;;;;;6175626;28;20058;-61
2022/04/13 05:23:45;;;;;;;71.75;34.45;;;;;;;;;;6174484;28;20054;-60
2022/04/13 05:26:46;;;;;;;131.68;49.00;;;;;;;;;;6177215;28;20568;-61
2022/04/13 05:29:46;;;;;;;102.30;38.97;;;;;;;;;;6176518;28;20047;-61
2022/04/13 05:32:49;;;;;;;85.45;34.50;;;;;;;;;;6178069;28;20553;-60
2022/04/13 05:35:50;;;;;;;84.15;32.47;;;;;;;;;;6181820;28;20803;-60
2022/04/13 05:38:51;;;;;;;68.53;29.80;;;;;;;;;;6186662;28;20193;-60
2022/04/13 05:41:52;;;;;;;86.57;33.28;;;;;;;;;;6186399;28;20049;-61
2022/04/13 05:44:52;;;;;;;72.78;31.58;;;;;;;;;;6185968;28;20123;-60
2022/04/13 05:47:53;;;;;;;86.63;31.10;;;;;;;;;;6180503;28;20054;-58
2022/04/13 05:50:53;;;;;;;79.40;32.25;;;;;;;;;;6181803;28;20189;-60
2022/04/13 05:53:54;;;;;;;99.85;36.33;;;;;;;;;;6187051;28;20108;-60
2022/04/13 05:56:54;;;;;;;75.70;31.17;;;;;;;;;;6180737;28;20584;-59
2022/04/13 05:59:55;;;;;;;68.30;30.25;;;;;;;;;;6178270;28;20464;-59
2022/04/13 06:02:56;;;;;;;71.03;29.88;;;;;;;;;;6180568;28;20529;-59
2022/04/13 06:05:56;;;;;;;73.68;31.88;;;;;;;;;;6182273;28;20061;-59
2022/04/13 06:08:57;;;;;;;77.05;33.08;;;;;;;;;;6175740;28;20577;-59
2022/04/13 06:11:59;;;;;;;87.07;34.50;;;;;;;;;;6179750;28;20415;-59
2022/04/13 06:15:08;;;;;;;92.70;38.85;;;;;;;;;;6177416;28;20051;-59
2022/04/13 06:18:08;;;;;;;127.57;43.40;;;;;;;;;;6179823;28;20050;-59
2022/04/13 06:21:09;;;;;;;122.90;43.58;;;;;;;;;;6185540;28;20137;-59
2022/04/13 06:24:10;;;;;;;75.88;30.10;;;;;;;;;;6183049;28;20053;-58
2022/04/13 06:27:11;;;;;;;91.28;35.40;;;;;;;;;;6183480;28;20046;-59
2022/04/13 06:30:13;;;;;;;97.18;34.38;;;;;;;;;;6182924;28;20043;-60
2022/04/13 06:33:13;;;;;;;81.35;32.53;;;;;;;;;;6183929;28;20125;-59
2022/04/13 06:36:15;;;;;;;64.80;28.85;;;;;;;;;;6182829;28;20784;-59
2022/04/13 06:39:15;;;;;;;60.22;27.88;;;;;;;;;;6181035;28;20050;-60
2022/04/13 06:42:16;;;;;;;68.78;29.23;;;;;;;;;;6182208;28;20108;-60
2022/04/13 06:45:16;;;;;;;51.83;25.77;;;;;;;;;;6186417;28;20045;-59
2022/04/13 06:48:17;;;;;;;46.45;21.85;;;;;;;;;;6180617;28;20087;-60
2022/04/13 06:51:17;;;;;;;51.88;22.90;;;;;;;;;;6178898;28;20146;-60
2022/04/13 06:54:18;;;;;;;51.28;21.73;;;;;;;;;;6183516;28;20045;-60
2022/04/13 06:57:18;;;;;;;47.17;20.95;;;;;;;;;;6186430;28;20154;-60
2022/04/13 07:00:19;;;;;;;40.92;19.42;;;;;;;;;;6174986;28;20718;-59
2022/04/13 07:03:20;;;;;;;43.33;19.70;;;;;;;;;;6181159;28;20490;-60
2022/04/13 07:06:20;;;;;;;42.78;19.38;;;;;;;;;;6184258;28;20486;-60
2022/04/13 07:09:21;;;;;;;39.60;18.92;;;;;;;;;;6173880;28;20074;-60
2022/04/13 07:12:22;;;;;;;40.80;20.60;;;;;;;;;;6176076;28;20046;-60
2022/04/13 07:15:23;;;;;;;38.03;19.88;;;;;;;;;;6184826;28;20516;-60
2022/04/13 07:18:23;;;;;;;37.33;18.25;;;;;;;;;;6184444;28;20152;-60
2022/04/13 07:21:24;;;;;;;42.53;20.08;;;;;;;;;;6183923;28;20047;-60
2022/04/13 07:24:25;;;;;;;38.05;17.60;;;;;;;;;;6199334;28;20471;-59
2022/04/13 07:27:25;;;;;;;35.83;16.85;;;;;;;;;;6183499;28;20058;-60
2022/04/13 07:30:26;;;;;;;35.28;18.70;;;;;;;;;;6182847;28;20113;-59
2022/04/13 07:33:27;;;;;;;36.47;15.32;;;;;;;;;;6187180;28;20489;-60
2022/04/13 07:36:28;;;;;;;36.80;18.30;;;;;;;;;;6186805;28;20053;-61
2022/04/13 07:39:28;;;;;;;29.38;16.05;;;;;;;;;;6176391;28;20154;-60
2022/04/13 07:42:29;;;;;;;55.00;26.10;;;;;;;;;;6184575;28;20078;-60
2022/04/13 07:45:30;;;;;;;34.47;18.55;;;;;;;;;;6181625;28;20042;-61
2022/04/13 07:48:31;;;;;;;31.33;16.42;;;;;;;;;;6181414;28;20128;-60
2022/04/13 07:51:32;;;;;;;74.72;36.88;;;;;;;;;;6182792;28;20460;-60
2022/04/13 07:54:33;;;;;;;28.90;15.83;;;;;;;;;;6187328;28;20046;-60
2022/04/13 07:57:34;;;;;;;25.13;14.52;;;;;;;;;;6189420;28;20062;-60
2022/04/13 08:00:34;;;;;;;32.95;15.52;;;;;;;;;;6183363;28;20050;-60
2022/04/13 08:03:35;;;;;;;29.17;14.70;;;;;;;;;;6187705;28;20104;-65
2022/04/13 08:06:36;;;;;;;25.63;14.27;;;;;;;;;;6183466;28;20501;-60
2022/04/13 08:09:37;;;;;;;30.13;15.98;;;;;;;;;;6187046;28;20082;-61
2022/04/13 08:12:39;;;;;;;29.27;15.32;;;;;;;;;;6187088;28;20059;-60
2022/04/13 08:15:39;;;;;;;26.65;14.15;;;;;;;;;;6184808;28;20454;-60
2022/04/13 08:18:40;;;;;;;28.67;14.60;;;;;;;;;;6184596;28;20047;-61
2022/04/13 08:21:41;;;;;;;25.95;14.50;;;;;;;;;;6187542;28;20046;-60
2022/04/13 08:24:41;;;;;;;25.65;13.75;;;;;;;;;;6185282;28;20043;-60
2022/04/13 08:27:42;;;;;;;30.98;14.43;;;;;;;;;;6176625;28;20074;-60
2022/04/13 08:30:43;;;;;;;25.23;13.40;;;;;;;;;;6188640;28;20058;-60
2022/04/13 08:33:44;;;;;;;25.02;12.18;;;;;;;;;;6188997;28;20062;-61
2022/04/13 08:36:44;;;;;;;26.20;12.80;;;;;;;;;;6188773;28;20478;-60
2022/04/13 08:39:45;;;;;;;24.40;13.52;;;;;;;;;;6190228;28;20082;-60
2022/04/13 08:43:07;;;;;;;19.05;12.50;;;;;;;;;;6183861;28;20085;-60
2022/04/13 08:46:13;;;;;;;21.27;12.00;;;;;;;;;;6187819;28;20065;-60
2022/04/13 08:49:15;;;;;;;19.52;11.38;;;;;;;;;;6185985;28;20081;-61
2022/04/13 08:52:20;;;;;;;37.05;17.67;;;;;;;;;;6183487;28;20436;-60
2022/04/13 08:55:23;;;;;;;25.67;12.77;;;;;;;;;;6181750;28;20802;-59
2022/04/13 08:58:46;;;;;;;84.88;36.80;;;;;;;;;;6189203;28;20417;-61
2022/04/13 09:01:53;;;;;;;21.55;10.32;;;;;;;;;;6182091;28;20109;-62
2022/04/13 09:04:59;;;;;;;20.90;10.40;;;;;;;;;;6177490;28;20046;-61
2022/04/13 09:08:17;;;;;;;16.98;9.18;;;;;;;;;;6183578;28;20055;-61
2022/04/13 09:11:22;;;;;;;19.17;9.55;;;;;;;;;;6175633;28;20493;-61
2022/04/13 09:14:23;;;;;;;19.45;9.63;;;;;;;;;;6180162;28;20081;-62
2022/04/13 09:17:29;;;;;;;17.35;9.93;;;;;;;;;;6188521;28;20050;-62
2022/04/13 09:20:29;;;;;;;23.38;10.82;;;;;;;;;;6171918;28;20146;-61
2022/04/13 09:23:30;;;;;;;18.40;10.38;;;;;;;;;;6182852;28;20050;-60
2022/04/13 09:26:31;;;;;;;15.80;9.10;;;;;;;;;;6186842;28;20038;-66
2022/04/13 09:29:31;;;;;;;24.52;11.15;;;;;;;;;;6188283;28;20133;-60
2022/04/13 09:32:33;;;;;;;20.15;9.20;;;;;;;;;;6180438;28;20455;-60
2022/04/13 09:35:37;;;;;;;23.83;10.27;;;;;;;;;;6185534;28;20047;-60
2022/04/13 09:38:39;;;;;;;15.35;8.98;;;;;;;;;;6187069;28;20119;-61
2022/04/13 09:41:39;;;;;;;17.57;10.03;;;;;;;;;;6181409;28;20050;-61
2022/04/13 09:44:43;;;;;;;18.48;9.00;;;;;;;;;;6185310;28;20177;-61
2022/04/13 09:47:46;;;;;;;20.65;10.15;;;;;;;;;;6187911;28;20087;-61
2022/04/13 09:50:52;;;;;;;20.90;9.05;;;;;;;;;;6188917;28;20100;-64
2022/04/13 09:53:53;;;;;;;17.38;9.43;;;;;;;;;;6181352;28;20047;-61
2022/04/13 09:56:54;;;;;;;19.23;9.30;;;;;;;;;;6186310;28;20117;-61
2022/04/13 10:00:00;;;;;;;19.42;8.52;;;;;;;;;;6185976;28;20474;-60
2022/04/13 10:03:17;;;;;;;16.27;7.88;;;;;;;;;;6177640;28;20094;-60
2022/04/13 10:06:26;;;;;;;16.73;8.85;;;;;;;;;;6184672;28;20092;-61
2022/04/13 10:09:31;;;;;;;16.05;8.90;;;;;;;;;;6183815;28;20145;-61
2022/04/13 10:12:47;;;;;;;17.55;8.80;;;;;;;;;;6181833;28;20117;-61
2022/04/13 10:15:56;;;;;;;17.42;8.38;;;;;;;;;;6181969;28;20110;-61
2022/04/13 10:18:58;;;;;;;16.20;8.40;;;;;;;;;;6179902;28;20056;-62
2022/04/13 10:21:59;;;;;;;16.63;8.95;;;;;;;;;;6183540;28;20494;-61
2022/04/13 10:25:17;;;;;;;16.02;8.80;;;;;;;;;;6183038;28;20043;-61
2022/04/13 10:28:24;;;;;;;15.70;8.75;;;;;;;;;;6180549;28;20144;-61
2022/04/13 10:31:24;;;;;;;20.95;7.78;;;;;;;;;;6187002;28;20047;-61
2022/04/13 10:34:46;;;;;;;17.90;8.20;;;;;;;;;;6181795;28;20070;-61
2022/04/13 10:37:46;;;;;;;14.50;8.05;;;;;;;;;;6178776;28;20074;-61
2022/04/13 10:40:48;;;;;;;16.45;8.63;;;;;;;;;;6180288;28;20065;-60
2022/04/13 10:43:52;;;;;;;16.05;8.18;;;;;;;;;;6183825;28;20151;-60
2022/04/13 10:46:57;;;;;;;15.40;8.20;;;;;;;;;;6182239;28;20081;-60
2022/04/13 10:50:00;;;;;;;16.15;8.07;;;;;;;;;;6180184;28;20078;-60
2022/04/13 10:53:13;;;;;;;17.25;8.27;;;;;;;;;;6186621;28;20054;-63
2022/04/13 10:56:16;;;;;;;16.48;7.97;;;;;;;;;;6178441;28;20510;-61
2022/04/13 10:59:25;;;;;;;18.42;8.00;;;;;;;;;;6182383;28;20496;-61
2022/04/13 11:02:32;;;;;;;16.52;9.90;;;;;;;;;;6192447;28;20046;-62
2022/04/13 11:05:33;;;;;;;16.80;8.15;;;;;;;;;;6183361;28;20046;-62
2022/04/13 11:08:50;;;;;;;15.90;8.43;;;;;;;;;;6184197;28;20205;-61
2022/04/13 11:11:53;;;;;;;16.17;7.75;;;;;;;;;;6196460;28;20462;-61
2022/04/13 11:14:55;;;;;;;15.63;7.78;;;;;;;;;;6185514;28;20043;-61
2022/04/13 11:18:07;;;;;;;15.70;8.70;;;;;;;;;;6185641;28;20756;-60
2022/04/13 11:21:09;;;;;;;13.88;7.05;;;;;;;;;;6187391;28;20058;-61
2022/04/13 11:24:29;;;;;;;;;;;;;;;;;;6191240;28;20086;-61
2022/04/13 11:27:50;;;;;;;14.70;8.00;;;;;;;;;;6187960;28;19921;-60
2022/04/13 11:31:07;;;;;;;13.40;7.75;;;;;;;;;;6189113;28;21149;-61
2022/04/13 11:34:07;;;;;;;13.40;8.52;;;;;;;;;;6187405;28;20054;-66
2022/04/13 11:37:11;;;;;;;13.85;8.15;;;;;;;;;;6191977;28;20057;-61
2022/04/13 11:40:17;;;;;;;28.35;10.90;;;;;;;;;;6189573;28;20118;-60
2022/04/13 11:43:22;;;;;;;17.52;8.65;;;;;;;;;;6188406;28;20400;-61
2022/04/13 11:46:39;;;;;;;15.38;8.40;;;;;;;;;;6189322;28;20054;-61
2022/04/13 11:49:53;;;;;;;17.27;8.93;;;;;;;;;;6190530;28;20046;-61
2022/04/13 11:53:01;;;;;;;17.00;8.50;;;;;;;;;;6197505;28;20418;-61
2022/04/13 11:56:04;;;;;;;22.60;12.98;;;;;;;;;;6191549;28;20367;-60
2022/04/13 11:59:07;;;;;;;25.63;17.58;;;;;;;;;;6186238;28;20382;-60
2022/04/13 12:02:10;;;;;;;15.68;9.32;;;;;;;;;;6187094;28;20090;-61
2022/04/13 12:05:14;;;;;;;17.42;9.30;;;;;;;;;;6191492;28;20490;-60
2022/04/13 12:08:26;;;;;;;18.30;8.52;;;;;;;;;;6183954;28;20145;-60
2022/04/13 12:11:44;;;;;;;;;;;;;;;;;;6189425;28;20060;-60
2022/04/13 12:14:54;;;;;;;14.63;8.15;;;;;;;;;;6189953;28;19984;-61
2022/04/13 12:17:55;;;;;;;16.55;8.88;;;;;;;;;;6184791;28;20575;-60
2022/04/13 12:21:11;;;;;;;15.60;8.75;;;;;;;;;;6189018;28;20091;-60
2022/04/13 12:24:12;;;;;;;13.48;8.02;;;;;;;;;;6187110;28;20133;-60
2022/04/13 12:27:12;;;;;;;12.10;7.10;;;;;;;;;;6187542;28;20183;-60
2022/04/13 12:30:18;;;;;;;14.48;7.70;;;;;;;;;;6187576;28;20130;-62
2022/04/13 12:33:23;;;;;;;13.73;7.47;;;;;;;;;;6186078;28;20093;-60
2022/04/13 12:36:23;;;;;;;14.38;7.53;;;;;;;;;;6188173;28;20165;-63
2022/04/13 12:39:29;;;;;;;16.50;7.50;;;;;;;;;;6184899;28;20049;-61
2022/04/13 12:42:30;;;;;;;14.05;7.25;;;;;;;;;;6182781;28;20054;-60
2022/04/13 12:45:31;;;;;;;11.85;7.43;;;;;;;;;;6183716;28;20839;-61
2022/04/13 12:48:31;;;;;;;12.23;7.18;;;;;;;;;;6185410;28;20072;-60
2022/04/13 12:51:34;;;;;;;13.23;8.68;;;;;;;;;;6190631;28;20056;-60
2022/04/13 12:54:40;;;;;;;17.00;9.15;;;;;;;;;;6187705;28;20582;-60
2022/04/13 12:57:41;;;;;;;14.63;7.63;;;;;;;;;;6185179;28;20096;-60
2022/04/13 13:00:54;;;;;;;16.50;8.70;;;;;;;;;;6188086;28;20569;-64
2022/04/13 13:03:57;;;;;;;17.65;9.90;;;;;;;;;;6188540;28;20097;-60
2022/04/13 13:07:00;;;;;;;13.75;6.93;;;;;;;;;;6193225;28;20057;-60
2022/04/13 13:10:01;;;;;;;14.98;6.72;;;;;;;;;;6186769;28;20517;-60
2022/04/13 13:13:12;;;;;;;12.38;6.35;;;;;;;;;;6191380;28;20076;-60
2022/04/13 13:16:30;;;;;;;11.88;6.90;;;;;;;;;;6190351;28;20176;-60
2022/04/13 13:19:33;;;;;;;13.32;7.53;;;;;;;;;;6185799;28;20136;-60
2022/04/13 13:22:39;;;;;;;14.48;7.65;;;;;;;;;;6186734;28;20494;-62
2022/04/13 13:25:40;;;;;;;13.60;7.70;;;;;;;;;;6188772;28;20068;-61
2022/04/13 13:28:43;;;;;;;13.40;6.63;;;;;;;;;;6187851;28;20050;-61
2022/04/13 13:31:44;;;;;;;15.65;7.45;;;;;;;;;;6194703;28;20096;-61
2022/04/13 13:34:54;;;;;;;14.52;7.85;;;;;;;;;;6195675;28;20796;-61
2022/04/13 13:38:04;;;;;;;12.25;6.95;;;;;;;;;;6190127;28;20482;-62
2022/04/13 13:41:11;;;;;;;13.98;6.68;;;;;;;;;;6189865;28;20571;-61
2022/04/13 13:44:22;;;;;;;13.85;6.85;;;;;;;;;;6184418;28;20056;-61
2022/04/13 13:47:23;;;;;;;12.07;6.33;;;;;;;;;;6185995;28;20050;-61
2022/04/13 13:50:24;;;;;;;12.38;6.53;;;;;;;;;;6188484;28;20721;-62
2022/04/13 13:53:28;;;;;;;11.43;6.20;;;;;;;;;;6185310;28;20712;-61
2022/04/13 13:56:29;;;;;;;13.95;6.28;;;;;;;;;;6193374;28;20046;-62
2022/04/13 13:59:30;;;;;;;11.07;6.38;;;;;;;;;;6186462;28;20051;-61
2022/04/13 14:02:30;;;;;;;10.68;6.93;;;;;;;;;;6192283;28;20056;-62
2022/04/13 14:05:32;;;;;;;13.18;6.65;;;;;;;;;;6184175;28;20057;-61
2022/04/13 14:08:32;;;;;;;13.48;6.72;;;;;;;;;;6182568;28;20145;-61
2022/04/13 14:11:33;;;;;;;13.73;9.40;;;;;;;;;;6185620;28;20101;-62
2022/04/13 14:14:34;;;;;;;20.48;8.60;;;;;;;;;;6186056;28;20050;-61
2022/04/13 14:17:34;;;;;;;13.40;7.45;;;;;;;;;;6189237;28;20054;-60
2022/04/13 14:20:35;;;;;;;14.38;8.13;;;;;;;;;;6188734;28;20044;-61
2022/04/13 14:23:37;;;;;;;14.55;7.30;;;;;;;;;;6186685;28;20061;-63
2022/04/13 14:26:37;;;;;;;14.90;7.20;;;;;;;;;;6186973;28;20050;-61
2022/04/13 14:29:38;;;;;;;12.07;7.25;;;;;;;;;;6190334;28;20057;-61
2022/04/13 14:32:40;;;;;;;16.13;7.85;;;;;;;;;;6195145;28;20058;-61
2022/04/13 14:35:40;;;;;;;17.52;8.75;;;;;;;;;;6196363;28;20073;-61
2022/04/13 14:38:41;;;;;;;20.10;10.48;;;;;;;;;;6195453;28;20049;-61
2022/04/13 14:41:42;;;;;;;14.90;8.80;;;;;;;;;;6194158;28;20577;-66
2022/04/13 14:44:43;;;;;;;15.95;8.18;;;;;;;;;;6195495;28;20109;-62
2022/04/13 14:47:46;;;;;;;26.67;9.13;;;;;;;;;;6196041;28;20081;-61
2022/04/13 14:50:47;;;;;;;34.13;11.93;;;;;;;;;;6193804;28;20373;-61
2022/04/13 14:53:50;;;;;;;21.48;10.25;;;;;;;;;;6197950;28;20058;-61
2022/04/13 14:56:51;;;;;;;16.10;8.85;;;;;;;;;;6198631;28;20065;-59
2022/04/13 14:59:52;;;;;;;13.98;7.85;;;;;;;;;;6191410;28;20062;-60
2022/04/13 15:02:53;;;;;;;15.07;8.10;;;;;;;;;;6193899;28;20587;-62
2022/04/13 15:05:54;;;;;;;23.23;11.10;;;;;;;;;;6196258;28;20310;-61
2022/04/13 15:08:55;;;;;;;21.00;8.23;;;;;;;;;;6193913;28;20050;-62
2022/04/13 15:11:58;;;;;;;16.07;8.77;;;;;;;;;;6199149;28;20125;-61
2022/04/13 15:14:59;;;;;;;15.88;8.80;;;;;;;;;;6197011;28;20057;-61
2022/04/13 15:17:59;;;;;;;13.60;8.40;;;;;;;;;;6191638;28;20065;-61
2022/04/13 15:21:00;;;;;;;17.23;9.77;;;;;;;;;;6194316;28;20054;-61
2022/04/13 15:24:01;;;;;;;17.08;8.75;;;;;;;;;;6194108;28;20058;-61
2022/04/13 15:27:02;;;;;;;31.15;11.90;;;;;;;;;;6194743;28;20054;-62
2022/04/13 15:30:03;;;;;;;20.05;10.68;;;;;;;;;;6192912;28;20092;-62
2022/04/13 15:33:07;;;;;;;20.80;10.27;;;;;;;;;;6197955;28;20034;-62
2022/04/13 15:36:09;;;;;;;16.27;9.32;;;;;;;;;;6197394;28;20153;-62
2022/04/13 15:39:09;;;;;;;;;;;;;;;;;;6193661;28;20145;-61
2022/04/13 15:42:10;;;;;;;17.95;8.35;;;;;;;;;;6193089;28;19948;-60
2022/04/13 15:45:11;;;;;;;17.40;9.73;;;;;;;;;;6191301;28;20058;-64
2022/04/13 15:48:13;;;;;;;22.13;10.25;;;;;;;;;;6191440;28;20138;-62
2022/04/13 15:51:14;;;;;;;23.73;12.57;;;;;;;;;;6191519;28;20054;-62
2022/04/13 15:54:14;;;;;;;27.80;13.90;;;;;;;;;;6197373;28;20054;-62
2022/04/13 15:57:15;;;;;;;17.88;10.10;;;;;;;;;;6193421;28;20145;-61
2022/04/13 16:00:16;;;;;;;15.13;8.45;;;;;;;;;;6172724;28;20088;-62
2022/04/13 16:03:17;;;;;;;18.20;8.82;;;;;;;;;;6194157;28;20057;-62
2022/04/13 16:06:18;;;;;;;15.50;9.95;;;;;;;;;;6197170;28;20469;-62
2022/04/13 16:09:19;;;;;;;18.25;9.77;;;;;;;;;;6171641;28;20072;-62
2022/04/13 16:12:20;;;;;;;22.47;12.20;;;;;;;;;;6195064;28;20058;-61
2022/04/13 16:15:20;;;;;;;20.45;9.95;;;;;;;;;;6193632;28;20304;-62
2022/04/13 16:18:21;;;;;;;17.63;9.52;;;;;;;;;;6192129;28;20249;-62
2022/04/13 16:21:21;;;;;;;17.48;10.10;;;;;;;;;;6191993;28;20097;-62
2022/04/13 16:24:22;;;;;;;17.45;9.60;;;;;;;;;;6190214;28;20204;-63
2022/04/13 16:27:23;;;;;;;17.42;10.27;;;;;;;;;;6189657;28;20054;-63
2022/04/13 16:30:26;;;;;;;18.30;9.55;;;;;;;;;;6200158;28;20128;-61
2022/04/13 16:33:26;;;;;;;17.02;10.88;;;;;;;;;;6199852;28;20064;-62
2022/04/13 16:36:27;;;;;;;24.90;12.02;;;;;;;;;;6194012;28;20904;-62
2022/04/13 16:39:27;;;;;;;22.35;11.63;;;;;;;;;;6188933;28;20436;-62
2022/04/13 16:42:29;;;;;;;18.60;10.27;;;;;;;;;;6196256;28;20059;-61
2022/04/13 16:45:32;;;;;;;22.63;12.15;;;;;;;;;;6200239;28;20057;-61
2022/04/13 16:48:33;;;;;;;24.88;14.00;;;;;;;;;;6188116;28;20349;-62
2022/04/13 16:51:34;;;;;;;29.63;14.02;;;;;;;;;;6191444;28;20046;-62
2022/04/13 16:54:35;;;;;;;24.63;11.90;;;;;;;;;;6191852;28;20082;-61
2022/04/13 16:57:36;;;;;;;24.15;10.77;;;;;;;;;;6197410;28;20062;-63
2022/04/13 17:00:38;;;;;;;23.77;11.23;;;;;;;;;;6192379;28;20609;-62
2022/04/13 17:03:38;;;;;;;20.80;10.98;;;;;;;;;;6189328;28;20060;-62
2022/04/13 17:06:39;;;;;;;20.10;10.05;;;;;;;;;;6192054;28;20058;-63
2022/04/13 17:09:40;;;;;;;19.30;9.50;;;;;;;;;;6188060;28;20144;-62
2022/04/13 17:12:40;;;;;;;22.27;10.30;;;;;;;;;;6187907;28;20560;-61
2022/04/13 17:15:41;;;;;;;22.58;10.50;;;;;;;;;;6187145;28;20056;-61
2022/04/13 17:18:42;;;;;;;28.98;12.27;;;;;;;;;;6182504;28;20042;-61
2022/04/13 17:21:42;;;;;;;34.28;14.48;;;;;;;;;;6184070;28;20524;-62
2022/04/13 17:24:44;;;;;;;29.42;13.88;;;;;;;;;;6185417;28;20050;-61
2022/04/13 17:27:44;;;;;;;25.45;13.30;;;;;;;;;;6186805;28;20093;-63
2022/04/13 17:30:46;;;;;;;28.67;15.95;;;;;;;;;;6190696;28;20057;-64
2022/04/13 17:33:47;;;;;;;32.38;16.27;;;;;;;;;;6191900;28;20165;-62
2022/04/13 17:36:48;;;;;;;39.03;19.67;;;;;;;;;;6191692;28;20054;-63
2022/04/13 17:39:49;;;;;;;47.75;24.45;;;;;;;;;;6187536;28;20161;-64
2022/04/13 17:42:50;;;;;;;66.70;29.03;;;;;;;;;;6191143;28;20193;-64
2022/04/13 17:45:52;;;;;;;66.35;36.03;;;;;;;;;;6192359;28;20340;-64